WEATHER DATA

YESTERDAY
Time Temp. Dewp. Hum. Wind dir Wind speed Wind gust Bar. 1h Prec. 24h Prec.
23:59 7.9 5.2 83 0 0 1015.9 0.0000
00:10 7.8 5.3 84 0 0 1016 0.0000 0.0000
00:20 7.6 5.1 84 0 0 1016 0.0000 0.0000
00:29 7.5 5 84 0 0 1016.3 0.0000 0.0000
00:40 7.3 4.8 84 0 0 1016.4 0.0000 0.0000
00:50 7.1 4.6 84 0 0 1016.5 0.0000 0.0000
01:00 6.9 4.4 84 0 0 1016.6 0.0000 0.0000
01:10 6.8 4.3 84 0 0 1016.7 0.0000 0.0000
01:20 6.9 4.4 84 0 0 1016.8 0.0000 0.0000
01:30 7 4.5 84 0 0 1017 0.0000 0.0000
01:40 7 4.5 84 0 0 1017.1 0.0000 0.0000
01:51 7 4.5 84 0 0 1017.4 0.0000 0.0000
02:00 7.1 4.6 84 0 0 1017.5 0.0000 0.0000
02:10 7.2 4.7 84 0 0 1017.6 0.0000 0.0000
02:20 7.3 4.8 84 0 0 1017.7 0.0000 0.0000
02:31 7.2 4.7 84 0 0 1017.6 0.0000 0.0000
02:40 7.1 4.6 84 0 0 1017.6 0.0000 0.0000
02:50 7 4.5 84 0 0 1017.6 0.0000 0.0000
03:01 6.8 4.3 84 0 0 1017.6 0.0000 0.0000
03:11 6.7 4.2 84 0 0 1017.5 0.0000 0.0000
03:21 6.7 4.4 85 0 0 1017.8 0.0000 0.0000
03:31 6.7 4.4 85 0 0 1017.8 0.0000 0.0000
03:41 6.7 4.4 85 0 0 1017.7 0.0000 0.0000
03:51 6.7 4.4 85 0 0 1017.7 0.0000 0.0000
04:01 7 4.7 85 0 0 1017.7 0.0000 0.0000
04:11 7.1 4.8 85 0 0 1017.8 0.0000 0.0000
04:21 7.2 4.9 85 0 0 1017.9 0.0000 0.0000
04:31 7.3 4.9 85 0 0 1017.9 0.0000 0.0000
04:41 7.5 5.1 85 0 0 1017.9 0.0000 0.0000
04:52 7.7 5.3 85 0 0 1017.8 0.0000 0.0000
05:01 8 5.6 85 0 0 1017.9 0.0000 0.0000
05:22 8.4 6 85 0 0 1017.8 0.0000 0.0000
05:32 8.5 6.1 85 0 0 1017.8 0.0000 0.0000
05:42 8.6 6.2 85 0 0 1017.8 0.0000 0.0000
05:52 8.7 6.3 85 0 0 1017.7 0.0000 0.0000
06:02 8.9 6.5 85 0 0 1017.6 0.0000 0.0000
06:12 8.9 6.5 85 0 0 1017.7 0.0000 0.0000
06:22 9 6.6 85 0 0 1017.8 0.0000 0.0000
06:33 9.1 6.7 85 0 0 1017.9 0.0000 0.0000
06:42 9.1 6.7 85 0 0 1017.8 0.0000 0.0000
06:52 9.1 6.7 85 0 0 1017.8 0.0000 0.0000
07:02 9.2 6.8 85 0 0 1017.8 0.0000 0.0000
07:13 9.2 6.8 85 0 0 1017.7 0.0000 0.0000
07:22 9.3 6.9 85 0 0 1017.8 0.0000 0.0000
07:32 9.3 6.9 85 0 0 1017.8 0.0000 0.0000
07:43 9.4 7.2 86 0 0 1017.7 0.0000 0.0000
07:53 9.5 7.3 86 0 0 1017.9 0.0000 0.0000
08:03 9.5 7.3 86 0 0 1018 0.0000 0.0000
08:13 9.6 7.4 86 0 0 1018 0.0000 0.0000
08:23 9.6 7.4 86 0 0 1017.9 0.0000 0.0000
08:33 9.6 7.4 86 0 0 1018 0.0000 0.0000
08:43 9.6 7.4 86 0 0 1018 0.0000 0.0000
08:54 9.7 7.5 86 0 0 1017.9 0.0000 0.0000
09:03 9.7 7.5 86 0 0 1017.9 0.0000 0.0000
09:13 9.8 7.6 86 0 0 1018 0.0000 0.0000
09:23 9.8 7.6 86 0 0 1018 0.0000 0.0000
09:34 9.9 7.7 86 0 0 1018.1 0.0000 0.0000
09:44 10.1 7.9 86 0 0 1018 0.0000 0.0000
09:53 10.1 7.9 86 0 0 1018 0.0000 0.0000
10:04 10.2 8 86 0 0 1018.1 0.0000 0.0000
10:14 10.4 8.2 86 0 0 1018.2 0.0000 0.0000
10:24 10.6 8.4 86 0 0 1018.4 0.0000 0.0000
10:34 10.7 8.5 86 0 0 1018.2 0.0000 0.0000
10:44 10.7 8.5 86 0 0 1018.4 0.0000 0.0000
10:54 10.8 8.6 86 0 0 1018.4 0.0000 0.0000
11:04 10.8 8.6 86 0 0 1018.2 0.0000 0.0000
11:15 10.8 8.6 86 0 0 1018.1 0.0000 0.0000
11:24 10.8 8.6 86 0 0 1018.4 0.0000 0.0000
11:34 10.8 8.6 86 0 0 1018.4 0.0000 0.0000
11:44 10.8 8.6 86 0 0 1018.4 0.0000 0.0000
11:55 10.9 8.7 86 0 0 1018 0.0000 0.0000
12:05 11.1 8.8 86 0 0 1018.1 0.0000 0.0000
12:14 11.3 9 86 0 0 1018.1 0.0000 0.0000
12:25 11.5 9.2 86 0 0 1018 0.0000 0.0000
12:35 11.6 9.3 86 0 0 1018.1 0.0000 0.0000
12:45 11.7 9.4 86 0 0 1018.2 0.0000 0.0000
12:55 11.9 9.6 86 0 0 1018.2 0.0000 0.0000
13:05 12 9.7 86 0 0 1018.2 0.0000 0.0000
13:15 11.9 9.6 86 0 0 1018.2 0.0000 0.0000
13:25 11.8 9.4 85 0 0 1018.1 0.0000 0.0000
13:36 11.9 9.5 85 0 0 1018.1 0.0000 0.0000
13:46 11.9 9.5 85 0 0 1018.2 0.0000 0.0000
13:55 12 9.7 86 0 0 1018.2 0.0000 0.0000
14:05 12.1 9.7 85 0 0 1018.1 0.0000 0.0000
14:16 12.3 9.9 85 0 0 1018.2 0.0000 0.0000
14:26 12.3 9.9 85 0 0 1018.4 0.0000 0.0000
14:36 12.3 9.9 85 0 0 1018.4 0.0000 0.0000
14:46 12.3 9.9 85 0 0 1018.5 0.0000 0.0000
14:56 12.3 9.9 85 0 0 1018.2 0.0000 0.0000
15:06 12.5 10 85 0 0 1018.2 0.0000 0.0000
15:16 12.5 10 85 0 0 1018.1 0.0000 0.0000
15:26 12.6 10.1 85 0 0 1018.4 0.0000 0.0000
15:36 12.6 10.1 85 0 0 1018.1 0.0000 0.0000
15:46 12.8 10.3 85 0 0 1018 0.0000 0.0000
15:57 12.8 10.3 85 0 0 1018 0.0000 0.0000
16:07 12.9 10.3 84 0 0 1018.1 0.0000 0.0000
16:16 12.9 10.3 84 0 0 1018.2 0.0000 0.0000
16:26 12.8 10.2 84 0 0 1018.2 0.0000 0.0000
16:37 12.9 10.3 84 0 0 1018.2 0.0000 0.0000
16:47 12.8 10 83 0 0 1018.2 0.0000 0.0000
16:57 12.8 10 83 0 0 1018.4 0.0000 0.0000
17:07 12.7 9.9 83 0 0 1018.4 0.0000 0.0000
17:17 12.6 9.8 83 0 0 1018.5 0.0000 0.0000
17:27 12.5 9.7 83 0 0 1018.5 0.0000 0.0000
17:37 12.4 9.6 83 0 0 1018.5 0.0000 0.0000
17:48 12.3 9.5 83 0 0 1018.6 0.0000 0.0000
17:57 12.3 9.5 83 0 0 1018.6 0.0000 0.0000
18:07 12.3 9.5 83 0 0 1018.6 0.0000 0.0000
18:18 12.1 9.3 83 0 0 1018.7 0.0000 0.0000
18:28 12 9.2 83 0 0 1018.8 0.0000 0.0000
18:38 11.9 9.1 83 0 0 1019 0.0000 0.0000
18:47 11.7 8.9 83 0 0 1019.1 0.0000 0.0000
18:58 11.6 8.8 83 0 0 1019.2 0.0000 0.0000
19:08 11.4 8.6 83 0 0 1019.3 0.0000 0.0000
19:18 11.3 8.5 83 0 0 1019.6 0.0000 0.0000
19:28 11.2 8.4 83 0 0 1019.7 0.0000 0.0000
19:38 11 8.2 83 0 0 1019.7 0.0000 0.0000
19:48 10.9 8.1 83 0 0 1019.9 0.0000 0.0000
19:58 10.8 8 83 0 0 1020.1 0.0000 0.0000
20:09 10.7 7.9 83 0 0 1020.3 0.0000 0.0000
20:18 10.6 7.8 83 0 0 1020.4 0.0000 0.0000
20:28 10.5 7.7 83 0 0 1020.5 0.0000 0.0000
20:39 10.4 7.8 84 0 0 1020.6 0.0000 0.0000
20:49 10.2 7.6 84 0 0 1020.9 0.0000 0.0000
20:59 10.1 7.5 84 0 0 1020.9 0.0000 0.0000
21:08 10.1 7.5 84 0 0 1021.1 0.0000 0.0000
21:19 9.9 7.3 84 0 0 1021.2 0.0000 0.0000
21:29 9.8 7.2 84 0 0 1021.4 0.0000 0.0000
21:39 9.6 7 84 0 0 1021.5 0.0000 0.0000
21:49 9.5 6.9 84 0 0 1021.6 0.0000 0.0000
21:59 9.5 6.9 84 0 0 1021.8 0.0000 0.0000
22:09 9.4 6.8 84 0 0 1021.8 0.0000 0.0000
22:19 9.5 6.9 84 0 0 1021.9 0.0000 0.0000
22:30 9.5 6.9 84 0 0 1022 0.0000 0.0000
22:40 9.4 6.8 84 0 0 1022.1 0.0000 0.0000
22:49 9.3 6.7 84 0 0 1022.2 0.0000 0.0000
23:00 9.3 6.7 84 0 0 1022.4 0.0000 0.0000
23:10 9.1 6.5 84 0 0 1022.6 0.0000 0.0000
23:20 9 6.4 84 0 0 1022.7 0.0000 0.0000
23:29 8.8 6.2 84 0 0 1022.8 0.0000 0.0000
23:40 8.6 6.1 84 0 0 1022.9 0.0000 0.0000
23:50 8.4 5.9 84 0 0 1022.9 0.0000 0.0000

DAY STATISTIC

2022-10-02
TEMPERATURE
AVERAGE
10.0
HIGH
12.9
16:07
LOW
6.7
03:11
PRESSURE
AVERAGE
1018.6
HIGH
1022.9
23:40
LOW
1016.0
00:10
DEWPOINT
AVERAGE
7.5
HIGH
10.3
15:46
LOW
4.2
03:11
HUMIDITY
AVERAGE
85
HIGH
86
07:43
LOW
83
16:47
WIND SPEED
AVERAGE
0.0
HIGH
0.0
08:56
WIND GUST
AVERAGE
0.0
HIGH
0.0
08:56
WIND DIRECTION
PREVAILING
%
PRECIPITATION
RAIN HOUR
0.0
RAIN DAY
0.0
TEMPERATURE (°C)
LOW
6.7
HIGH
12.9
AVERAGE
10.0
PRESSURE (hpa)
LOW
1016.0
HIGH
1022.9
AVERAGE
1018.6
DEVICE